Time;durP1;ratioP1;P1;durP2;ratioP2;P2;SDS_P1;SDS_P2;PMS_P1;PMS_P2;Temp;Humidity;BMP_temperature;BMP_pressure;BME280_temperature;BME280_humidity;BME280_pressure;Samples;Min_cycle;Max_cycle;Signal;HPM_P1;HPM_P2
2022/05/13 00:00:04;;;;;;;;;0.67;0.67;;;;;-147.14;100.00;58812.66;4982291;28;46913;-45
2022/05/13 00:02:29;;;;;;;;;1.00;1.00;;;;;-147.14;100.00;58812.66;4964593;28;45432;-45
2022/05/13 00:04:55;;;;;;;;;1.00;0.00;;;;;-147.14;100.00;58812.66;4982721;28;45700;-45
2022/05/13 00:07:20;;;;;;;;;1.00;1.00;;;;;-147.14;100.00;58812.66;4981894;28;60288;-44
2022/05/13 00:09:59;;;;;;;;;2.33;1.00;;;;;-147.14;100.00;58812.66;4981670;28;47045;-45
2022/05/13 00:12:25;;;;;;;;;1.00;1.00;;;;;-147.14;100.00;58812.66;4982650;28;45295;-45
2022/05/13 00:14:53;;;;;;;;;1.00;1.00;;;;;-147.14;100.00;58812.66;4982277;28;45306;-45
2022/05/13 00:17:20;;;;;;;;;1.00;1.00;;;;;-147.14;100.00;58812.66;4982056;28;45393;-45
2022/05/13 00:19:45;;;;;;;;;0.00;0.00;;;;;-147.14;100.00;58812.66;4981589;28;46276;-45
2022/05/13 00:22:11;;;;;;;;;1.00;1.00;;;;;-147.14;100.00;58812.66;4981487;28;65487;-44
2022/05/13 00:24:36;;;;;;;;;4.00;1.00;;;;;-147.14;100.00;58812.66;4981785;28;45310;-44
2022/05/13 00:27:03;;;;;;;;;2.00;1.00;;;;;-147.14;100.00;58812.66;4981574;28;61710;-45
2022/05/13 00:29:28;;;;;;;;;1.00;0.00;;;;;-147.14;100.00;58812.66;4981491;28;47110;-45
2022/05/13 00:31:54;;;;;;;;;3.00;1.00;;;;;-147.14;100.00;58812.66;4987049;28;64677;-44
2022/05/13 00:34:19;;;;;;;;;1.33;0.67;;;;;-147.14;100.00;58812.66;4982083;28;46303;-44
2022/05/13 00:36:45;;;;;;;;;1.00;1.00;;;;;-147.14;100.00;58812.66;4981794;28;45378;-45
2022/05/13 00:39:10;;;;;;;;;2.33;0.67;;;;;-147.14;100.00;58812.66;4981860;28;46192;-44
2022/05/13 00:41:36;;;;;;;;;2.33;1.00;;;;;-147.14;100.00;58812.66;4981801;28;45432;-44
2022/05/13 00:44:02;;;;;;;;;1.00;1.00;;;;;-147.14;100.00;58812.66;4979749;28;45326;-44
2022/05/13 00:46:28;;;;;;;;;2.00;1.00;;;;;-147.14;100.00;58812.66;4981705;28;45457;-46
2022/05/13 00:48:54;;;;;;;;;3.33;1.67;;;;;-147.14;100.00;58812.66;4981056;28;45978;-44
2022/05/13 00:51:26;;;;;;;;;1.33;0.00;;;;;-147.14;100.00;58812.66;4963781;28;45372;-44
2022/05/13 00:53:52;;;;;;;;;3.00;1.00;;;;;-147.14;100.00;58812.66;4963688;28;45194;-44
2022/05/13 00:56:19;;;;;;;;;3.00;1.67;;;;;-147.14;100.00;58812.66;4981806;28;45286;-44
2022/05/13 00:58:47;;;;;;;;;2.33;1.33;;;;;-147.14;100.00;58812.66;4980764;28;45447;-45
2022/05/13 01:01:13;;;;;;;;;1.67;0.67;;;;;-147.14;100.00;58812.66;4981578;28;45400;-45
2022/05/13 01:03:39;;;;;;;;;1.00;0.00;;;;;-147.14;100.00;58812.66;4981391;28;45341;-45
2022/05/13 01:06:07;;;;;;;;;0.67;0.00;;;;;-147.14;100.00;58812.66;4981001;28;45489;-45
2022/05/13 01:08:35;;;;;;;;;1.67;0.33;;;;;-147.14;100.00;58812.66;4981013;28;45873;-45
2022/05/13 01:11:02;;;;;;;;;1.33;0.67;;;;;-147.14;100.00;58812.66;4980733;28;64853;-44
2022/05/13 01:13:29;;;;;;;;;1.00;1.00;;;;;-147.14;100.00;58812.66;4963765;28;45393;-44
2022/05/13 01:15:55;;;;;;;;;0.33;0.00;;;;;-147.14;100.00;58812.66;4981152;28;45419;-44
2022/05/13 01:18:40;;;;;;;;;2.33;0.67;;;;;-147.14;100.00;58812.66;4981451;28;46359;-45
2022/05/13 01:21:08;;;;;;;;;1.00;1.00;;;;;-147.14;100.00;58812.66;4981394;28;45404;-44
2022/05/13 01:23:42;;;;;;;;;3.00;1.67;;;;;-147.14;100.00;58812.66;4981231;28;45663;-44
2022/05/13 01:26:17;;;;;;;;;1.00;0.67;;;;;-147.14;100.00;58812.66;4981206;28;45515;-44
2022/05/13 01:28:47;;;;;;;;;0.00;0.00;;;;;-147.14;100.00;58812.66;4980952;28;46319;-44
2022/05/13 01:31:15;;;;;;;;;3.33;1.00;;;;;-147.14;100.00;58812.66;4986737;28;45501;-45
2022/05/13 01:33:41;;;;;;;;;1.00;1.00;;;;;-147.14;100.00;58812.66;4963353;28;45330;-44
2022/05/13 01:36:09;;;;;;;;;2.00;2.00;;;;;-147.14;100.00;58812.66;4981440;28;45261;-44
2022/05/13 01:38:37;;;;;;;;;3.00;1.67;;;;;-147.14;100.00;58812.66;4980524;28;45374;-46
2022/05/13 01:41:04;;;;;;;;;3.00;1.00;;;;;-147.14;100.00;58812.66;4969032;28;45378;-44
2022/05/13 01:43:29;;;;;;;;;4.00;0.00;;;;;-147.14;100.00;58812.66;4980849;28;45325;-45
2022/05/13 01:45:56;;;;;;;;;1.67;1.00;;;;;-147.14;100.00;58812.66;4981208;28;45382;-44
2022/05/13 01:48:22;;;;;;;;;1.33;1.00;;;;;-147.14;100.00;58812.66;4980938;28;45558;-44
2022/05/13 01:50:47;;;;;;;;;0.67;0.67;;;;;-147.14;100.00;58812.66;4980617;28;45338;-44
2022/05/13 01:53:13;;;;;;;;;1.33;0.33;;;;;-147.14;100.00;58812.66;4980193;28;50444;-45
2022/05/13 01:55:42;;;;;;;;;1.00;1.00;;;;;-147.14;100.00;58812.66;4962509;28;63400;-44
2022/05/13 01:58:09;;;;;;;;;1.00;1.00;;;;;-147.14;100.00;58812.66;4980387;28;45481;-44
2022/05/13 02:00:34;;;;;;;;;0.00;0.00;;;;;-147.14;100.00;58812.66;4980131;28;45229;-44
2022/05/13 02:05:43;;;;;;;;;3.67;1.00;;;;;-147.14;100.00;58812.66;4972221;28;45334;-44
2022/05/13 02:08:09;;;;;;;;;1.00;1.00;;;;;-147.14;100.00;58812.66;4979914;28;58343;-44
2022/05/13 02:10:34;;;;;;;;;1.67;0.67;;;;;-147.14;100.00;58812.66;4979784;28;63366;-44
2022/05/13 02:12:59;;;;;;;;;1.67;1.00;;;;;-147.14;100.00;58812.66;4980278;28;45397;-44
2022/05/13 02:15:25;;;;;;;;;3.33;0.67;;;;;-147.14;100.00;58812.66;4980387;28;50822;-44
2022/05/13 02:17:51;;;;;;;;;0.33;0.33;;;;;-147.14;100.00;58812.66;4979236;28;64567;-45
2022/05/13 02:20:16;;;;;;;;;1.67;0.67;;;;;-147.14;100.00;58812.66;4980905;28;45397;-44
2022/05/13 02:22:41;;;;;;;;;0.67;0.33;;;;;-147.14;100.00;58812.66;4979402;28;54017;-43
2022/05/13 02:25:07;;;;;;;;;1.67;1.00;;;;;-147.14;100.00;58812.66;4980099;28;60283;-44
2022/05/13 02:27:32;;;;;;;;;2.33;1.00;;;;;-147.14;100.00;58812.66;4979616;28;45728;-45
2022/05/13 02:29:58;;;;;;;;;1.33;0.67;;;;;-147.14;100.00;58812.66;4979669;28;64892;-44
2022/05/13 02:32:23;;;;;;;;;2.50;1.00;;;;;-147.14;100.00;58812.66;4980438;28;45364;-43
2022/05/13 02:34:49;;;;;;;;;1.67;0.67;;;;;-147.14;100.00;58812.66;4980184;28;45222;-44
2022/05/13 02:37:14;;;;;;;;;1.00;1.00;;;;;-147.14;100.00;58812.66;4979509;28;63147;-44
2022/05/13 02:39:40;;;;;;;;;6.00;2.00;;;;;-147.14;100.00;58812.66;4979857;28;45617;-44
2022/05/13 02:42:05;;;;;;;;;2.00;2.00;;;;;-147.14;100.00;58812.66;4980272;28;45277;-44
2022/05/13 02:44:31;;;;;;;;;1.67;1.67;;;;;-147.14;100.00;58812.66;4979896;28;45654;-45
2022/05/13 02:46:56;;;;;;;;;1.00;1.00;;;;;-147.14;100.00;58812.66;4979595;28;46154;-44
2022/05/13 02:49:22;;;;;;;;;4.00;0.67;;;;;-147.14;100.00;58812.66;4979238;28;64284;-44
2022/05/13 02:51:48;;;;;;;;;4.00;3.00;;;;;-147.14;100.00;58812.66;4979679;28;45392;-44
2022/05/13 02:54:13;;;;;;;;;3.00;2.00;;;;;-147.14;100.00;58812.66;4986486;28;45500;-44
2022/05/13 02:56:39;;;;;;;;;1.67;1.67;;;;;-147.14;100.00;58812.66;4978902;28;45542;-44
2022/05/13 02:59:04;;;;;;;;;3.67;2.67;;;;;-147.14;100.00;58812.66;4979384;28;63600;-46
2022/05/13 03:01:32;;;;;;;;;2.33;1.33;;;;;-147.14;100.00;58812.66;4979347;28;45255;-45
2022/05/13 03:03:58;;;;;;;;;1.00;1.00;;;;;-147.14;100.00;58812.66;4980182;28;45429;-44
2022/05/13 03:06:23;;;;;;;;;1.67;1.00;;;;;-147.14;100.00;58812.66;4979446;28;45689;-44
2022/05/13 03:08:49;;;;;;;;;0.67;0.67;;;;;-147.14;100.00;58812.66;4978544;28;65927;-44
2022/05/13 03:11:16;;;;;;;;;2.67;0.67;;;;;-147.14;100.00;58812.66;4979861;28;45323;-45
2022/05/13 03:13:41;;;;;;;;;1.00;1.00;;;;;-147.14;100.00;58812.66;4970853;28;45324;-45
2022/05/13 03:16:10;;;;;;;;;1.33;1.33;;;;;-147.14;100.00;58812.66;4979131;28;46098;-44
2022/05/13 03:18:38;;;;;;;;;2.67;2.00;;;;;-147.14;100.00;58812.66;4969546;28;45644;-47
2022/05/13 03:21:04;;;;;;;;;1.67;1.67;;;;;-147.14;100.00;58812.66;4979069;28;45168;-45
2022/05/13 03:23:29;;;;;;;;;2.00;2.00;;;;;-147.14;100.00;58812.66;4979395;28;45417;-44
2022/05/13 03:25:55;;;;;;;;;3.00;2.00;;;;;-147.14;100.00;58812.66;4979518;28;45959;-44
2022/05/13 03:28:20;;;;;;;;;4.00;2.00;;;;;-147.14;100.00;58812.66;4978992;28;64725;-45
2022/05/13 03:30:46;;;;;;;;;3.67;3.67;;;;;-147.14;100.00;58812.66;4966928;28;45405;-44
2022/05/13 03:33:12;;;;;;;;;5.00;4.00;;;;;-147.14;100.00;58812.66;4979777;28;45329;-45
2022/05/13 03:35:38;;;;;;;;;6.00;4.67;;;;;-147.14;100.00;58812.66;4978853;28;50724;-45
2022/05/13 03:38:03;;;;;;;;;5.33;5.33;;;;;-147.14;100.00;58812.66;4978696;28;45350;-44
2022/05/13 03:40:28;;;;;;;;;6.67;6.67;;;;;-147.14;100.00;58812.66;4979068;28;45298;-45
2022/05/13 03:42:54;;;;;;;;;10.00;8.00;;;;;-147.14;100.00;58812.66;4978727;28;45569;-45
2022/05/13 03:45:19;;;;;;;;;11.33;8.33;;;;;-147.14;100.00;58812.66;4978888;28;46272;-44
2022/05/13 03:47:45;;;;;;;;;10.00;7.33;;;;;-147.14;100.00;58812.66;4978874;28;45446;-45
2022/05/13 03:50:11;;;;;;;;;8.00;7.33;;;;;-147.14;100.00;58812.66;4979374;28;45327;-44
2022/05/13 03:52:37;;;;;;;;;10.33;9.00;;;;;-147.14;100.00;58812.66;4944937;28;45443;-45
2022/05/13 03:55:04;;;;;;;;;8.67;8.67;;;;;-147.14;100.00;58812.66;4978376;28;46311;-44
2022/05/13 03:57:30;;;;;;;;;8.33;6.00;;;;;-147.14;100.00;58812.66;4978611;28;45302;-45
2022/05/13 03:59:57;;;;;;;;;6.00;6.00;;;;;-147.14;100.00;58812.66;4978593;28;55651;-43
2022/05/13 04:02:23;;;;;;;;;6.33;5.67;;;;;-147.14;100.00;58812.66;4971382;28;45266;-44
2022/05/13 04:10:16;;;;;;;;;9.33;5.00;;;;;-147.14;100.00;58812.66;4979169;28;45564;-44
2022/05/13 04:18:19;;;;;;;;;5.33;4.00;;;;;-147.14;100.00;58812.66;4978704;28;45499;-44
2022/05/13 04:20:47;;;;;;;;;5.33;5.00;;;;;-147.14;100.00;58812.66;4978649;28;45375;-44
2022/05/13 04:23:12;;;;;;;;;5.00;5.00;;;;;-147.14;100.00;58812.66;4978952;28;45365;-45
2022/05/13 04:25:38;;;;;;;;;3.00;3.00;;;;;-147.14;100.00;58812.66;4978193;28;46446;-44
2022/05/13 04:28:03;;;;;;;;;4.67;3.00;;;;;-147.14;100.00;58812.66;4981108;28;65975;-44
2022/05/13 04:30:29;;;;;;;;;5.00;4.33;;;;;-147.14;100.00;58812.66;4981706;28;45376;-46
2022/05/13 04:32:54;;;;;;;;;4.33;3.00;;;;;-147.14;100.00;58812.66;4981462;28;45246;-44
2022/05/13 04:35:19;;;;;;;;;6.33;5.00;;;;;-147.14;100.00;58812.66;4980467;28;65604;-44
2022/05/13 04:37:45;;;;;;;;;6.33;5.33;;;;;-147.14;100.00;58812.66;4963648;28;45357;-44
2022/05/13 04:40:10;;;;;;;;;6.67;5.00;;;;;-147.14;100.00;58812.66;4981727;28;47405;-45
2022/05/13 04:42:51;;;;;;;;;5.33;4.67;;;;;-147.14;100.00;58812.66;4981360;28;45461;-44
2022/05/13 04:45:25;;;;;;;;;5.33;5.00;;;;;-147.14;100.00;58812.66;4981720;28;45353;-43
2022/05/13 04:48:16;;;;;;;;;4.33;4.33;;;;;-147.14;100.00;58812.66;4980588;28;45351;-43
2022/05/13 04:50:52;;;;;;;;;3.00;3.00;;;;;-147.14;100.00;58812.66;4978383;28;45829;-43
2022/05/13 04:53:25;;;;;;;;;6.67;5.00;;;;;-147.14;100.00;58812.66;4981179;28;45423;-42
2022/05/13 04:55:51;;;;;;;;;1.33;1.33;;;;;-147.14;100.00;58812.66;4978363;28;45566;-43
2022/05/13 04:58:17;;;;;;;;;5.00;4.00;;;;;-147.14;100.00;58812.66;4981660;28;45365;-43
2022/05/13 05:00:44;;;;;;;;;4.67;4.00;;;;;-147.14;100.00;58812.66;4980965;28;45409;-44
2022/05/13 05:03:09;;;;;;;;;4.00;3.33;;;;;-147.14;100.00;58812.66;4981734;28;45583;-44
2022/05/13 05:05:35;;;;;;;;;4.00;4.00;;;;;-147.14;100.00;58812.66;4979190;28;67147;-44
2022/05/13 05:08:00;;;;;;;;;4.33;4.33;;;;;-147.14;100.00;58812.66;4978437;28;64398;-44
2022/05/13 05:10:26;;;;;;;;;3.00;3.00;;;;;-147.14;100.00;58812.66;4981678;28;45302;-43
2022/05/13 05:12:55;;;;;;;;;5.00;4.33;;;;;-147.14;100.00;58812.66;4980884;28;45370;-43
2022/05/13 05:15:21;;;;;;;;;4.33;3.00;;;;;-147.14;100.00;58812.66;4973206;28;46106;-44
2022/05/13 05:17:47;;;;;;;;;5.67;3.67;;;;;-147.14;100.00;58812.66;4980378;28;45646;-43
2022/05/13 05:20:12;;;;;;;;;5.00;3.00;;;;;-147.14;100.00;58812.66;4981346;28;45235;-43
2022/05/13 05:22:38;;;;;;;;;3.33;3.33;;;;;-147.14;100.00;58812.66;4960855;28;45251;-44
2022/05/13 05:25:04;;;;;;;;;16.67;12.33;;;;;-147.14;100.00;58812.66;4981190;28;45342;-43
2022/05/13 05:27:30;;;;;;;;;3.00;3.00;;;;;-147.14;100.00;58812.66;4980497;28;45401;-43
2022/05/13 05:29:55;;;;;;;;;2.33;1.33;;;;;-147.14;100.00;58812.66;4980048;28;62145;-45
2022/05/13 05:32:20;;;;;;;;;3.00;3.00;;;;;-147.14;100.00;58812.66;4981295;28;45666;-45
2022/05/13 05:34:46;;;;;;;;;3.67;2.00;;;;;-147.14;100.00;58812.66;4980017;28;66592;-43
2022/05/13 05:37:11;;;;;;;;;3.67;2.67;;;;;-147.14;100.00;58812.66;4980384;28;45499;-43
2022/05/13 05:39:36;;;;;;;;;3.33;2.00;;;;;-147.14;100.00;58812.66;4978955;28;54237;-44
2022/05/13 05:42:02;;;;;;;;;2.67;2.67;;;;;-147.14;100.00;58812.66;4979556;28;57825;-45
2022/05/13 05:44:27;;;;;;;;;5.00;4.00;;;;;-147.14;100.00;58812.66;4980119;28;45407;-46
2022/05/13 05:46:53;;;;;;;;;3.00;3.00;;;;;-147.14;100.00;58812.66;4977065;28;45569;-48
2022/05/13 05:49:19;;;;;;;;;5.00;4.00;;;;;-147.14;100.00;58812.66;4976355;28;56161;-45
2022/05/13 05:51:44;;;;;;;;;3.00;2.00;;;;;-147.14;100.00;58812.66;4975524;28;45297;-44
2022/05/13 05:59:37;;;;;;;;;4.33;3.00;;;;;-147.14;100.00;58812.66;4979679;28;45410;-46
2022/05/13 06:02:03;;;;;;;;;3.67;3.67;;;;;-147.14;100.00;58812.66;4980329;28;45381;-46
2022/05/13 06:04:28;;;;;;;;;2.33;2.33;;;;;-147.14;100.00;58812.66;4974795;28;45825;-48
2022/05/13 06:06:54;;;;;;;;;2.67;2.67;;;;;-147.14;100.00;58812.66;4979426;28;66041;-45
2022/05/13 06:09:19;;;;;;;;;4.67;4.00;;;;;-147.14;100.00;58812.66;4979886;28;45440;-47
2022/05/13 06:11:44;;;;;;;;;4.67;4.67;;;;;-147.14;100.00;58812.66;4979408;28;45619;-46
2022/05/13 06:14:10;;;;;;;;;5.67;4.00;;;;;-147.14;100.00;58812.66;4979022;28;67008;-45
2022/05/13 06:16:36;;;;;;;;;2.67;2.67;;;;;-147.14;100.00;58812.66;4979413;28;45321;-47
2022/05/13 06:19:01;;;;;;;;;5.67;3.33;;;;;-147.14;100.00;58812.66;4979973;28;45484;-45
2022/05/13 06:21:28;;;;;;;;;7.00;5.00;;;;;-147.14;100.00;58812.66;4979598;28;61570;-45
2022/05/13 06:23:54;;;;;;;;;6.33;3.00;;;;;-147.14;100.00;58812.66;4970325;28;46116;-44
2022/05/13 06:26:21;;;;;;;;;5.00;5.00;;;;;-147.14;100.00;58812.66;4973882;28;45358;-45
2022/05/13 06:28:46;;;;;;;;;4.00;3.67;;;;;-147.14;100.00;58812.66;4980052;28;45398;-44
2022/05/13 06:31:12;;;;;;;;;5.00;3.00;;;;;-147.14;100.00;58812.66;4979990;28;45522;-46
2022/05/13 06:33:37;;;;;;;;;4.00;4.00;;;;;-147.14;100.00;58812.66;4979149;28;45380;-46
2022/05/13 06:36:03;;;;;;;;;5.00;3.00;;;;;-147.14;100.00;58812.66;4979974;28;45365;-43
2022/05/13 06:38:28;;;;;;;;;5.00;1.67;;;;;-147.14;100.00;58812.66;4979962;28;45388;-44
2022/05/13 06:40:54;;;;;;;;;5.67;4.00;;;;;-147.14;100.00;58812.66;4979910;28;47694;-43
2022/05/13 06:43:21;;;;;;;;;5.00;5.00;;;;;-147.14;100.00;58812.66;4980110;28;46236;-45
2022/05/13 06:45:47;;;;;;;;;3.00;3.00;;;;;-147.14;100.00;58812.66;4979234;28;45306;-44
2022/05/13 06:48:12;;;;;;;;;1.67;1.67;;;;;-147.14;100.00;58812.66;4979247;28;61412;-44
2022/05/13 06:50:39;;;;;;;;;6.00;3.00;;;;;-147.14;100.00;58812.66;4975954;28;45677;-47
2022/05/13 06:53:04;;;;;;;;;4.33;2.00;;;;;-147.14;100.00;58812.66;4978749;28;45374;-44
2022/05/13 06:55:30;;;;;;;;;2.00;2.00;;;;;-147.14;100.00;58812.66;4978633;28;45347;-44
2022/05/13 06:57:55;;;;;;;;;2.00;2.00;;;;;-147.14;100.00;58812.66;4979564;28;45564;-44
2022/05/13 07:00:22;;;;;;;;;5.00;2.67;;;;;-147.14;100.00;58812.66;4979494;28;45588;-44
2022/05/13 07:02:47;;;;;;;;;3.00;3.00;;;;;-147.14;100.00;58812.66;4978130;28;63582;-44
2022/05/13 07:05:15;;;;;;;;;2.00;2.00;;;;;-147.14;100.00;58812.66;4978773;28;63583;-46
2022/05/13 07:07:41;;;;;;;;;2.00;2.00;;;;;-147.14;100.00;58812.66;4979240;28;45428;-44
2022/05/13 07:10:07;;;;;;;;;4.00;2.00;;;;;-147.14;100.00;58812.66;4978643;28;45490;-46
2022/05/13 07:12:33;;;;;;;;;3.33;2.33;;;;;-147.14;100.00;58812.66;4978464;28;45334;-44
2022/05/13 07:14:59;;;;;;;;;3.00;1.33;;;;;-147.14;100.00;58812.66;4977832;28;62146;-43
2022/05/13 07:17:24;;;;;;;;;4.00;2.00;;;;;-147.14;100.00;58812.66;4978990;28;45516;-44
2022/05/13 07:19:50;;;;;;;;;2.33;2.33;;;;;-147.14;100.00;58812.66;4977912;28;45438;-45
2022/05/13 07:22:15;;;;;;;;;2.33;1.67;;;;;-147.14;100.00;58812.66;4978136;28;67028;-45
2022/05/13 07:24:41;;;;;;;;;3.33;1.00;;;;;-147.14;100.00;58812.66;4978062;28;45575;-46
2022/05/13 07:27:06;;;;;;;;;4.00;2.67;;;;;-147.14;100.00;58812.66;4977119;28;59762;-46
2022/05/13 07:29:32;;;;;;;;;4.00;2.00;;;;;-147.14;100.00;58812.66;4978494;28;45350;-45
2022/05/13 07:31:58;;;;;;;;;1.00;1.00;;;;;-147.14;100.00;58812.66;4978534;28;45416;-45
2022/05/13 07:34:23;;;;;;;;;2.67;1.67;;;;;-147.14;100.00;58812.66;4978719;28;45243;-45
2022/05/13 07:36:53;;;;;;;;;2.00;2.00;;;;;-147.14;100.00;58812.66;4978426;28;45643;-45
2022/05/13 07:42:07;;;;;;;;;1.00;1.00;;;;;-147.14;100.00;58812.66;4976680;28;46312;-47
2022/05/13 07:44:32;;;;;;;;;0.67;0.67;;;;;-147.14;100.00;58812.66;4977260;28;45412;-45
2022/05/13 07:46:57;;;;;;;;;2.67;2.00;;;;;-147.14;100.00;58812.66;4970354;28;45621;-47
2022/05/13 07:49:23;;;;;;;;;2.00;2.00;;;;;-147.14;100.00;58812.66;4976781;28;58513;-44
2022/05/13 07:51:48;;;;;;;;;1.00;1.00;;;;;-147.14;100.00;58812.66;4973454;28;68684;-45
2022/05/13 07:54:13;;;;;;;;;0.67;0.67;;;;;-147.14;100.00;58812.66;4977450;28;64708;-46
2022/05/13 07:56:39;;;;;;;;;3.00;3.00;;;;;-147.14;100.00;58812.66;4973702;28;45505;-45
2022/05/13 07:59:04;;;;;;;;;1.00;1.00;;;;;-147.14;100.00;58812.66;4977063;28;63807;-45
2022/05/13 08:01:30;;;;;;;;;1.00;1.00;;;;;-147.14;100.00;58812.66;4980502;28;46242;-47
2022/05/13 08:03:56;;;;;;;;;4.33;2.00;;;;;-147.14;100.00;58812.66;4981757;28;45576;-47
2022/05/13 08:06:22;;;;;;;;;4.67;2.00;;;;;-147.14;100.00;58812.66;4982175;28;45268;-45
2022/05/13 08:08:53;;;;;;;;;2.33;2.33;;;;;-147.14;100.00;58812.66;4981633;28;45468;-45
2022/05/13 08:11:19;;;;;;;;;2.67;1.33;;;;;-147.14;100.00;58812.66;4982017;28;46348;-46
2022/05/13 08:13:45;;;;;;;;;4.67;2.00;;;;;-147.14;100.00;58812.66;4977848;28;45353;-46
2022/05/13 08:16:14;;;;;;;;;4.67;3.00;;;;;-147.14;100.00;58812.66;4977905;28;45250;-45
2022/05/13 08:18:40;;;;;;;;;2.00;2.00;;;;;-147.14;100.00;58812.66;4971428;28;45569;-49
2022/05/13 08:21:06;;;;;;;;;4.67;2.67;;;;;-147.14;100.00;58812.66;4981632;28;47114;-47
2022/05/13 08:23:31;;;;;;;;;7.00;2.67;;;;;-147.14;100.00;58812.66;4973460;28;45449;-46
2022/05/13 08:25:57;;;;;;;;;1.33;1.00;;;;;-147.14;100.00;58812.66;4977821;28;45548;-46
2022/05/13 08:28:23;;;;;;;;;2.67;2.00;;;;;-147.14;100.00;58812.66;4980934;28;45283;-46
2022/05/13 08:30:49;;;;;;;;;4.00;2.00;;;;;-147.14;100.00;58812.66;4980432;28;46602;-46
2022/05/13 08:33:15;;;;;;;;;1.00;1.00;;;;;-147.14;100.00;58812.66;4981656;28;45413;-47
2022/05/13 08:35:46;;;;;;;;;2.00;1.00;;;;;-147.14;100.00;58812.66;4980736;28;58724;-46
2022/05/13 08:38:12;;;;;;;;;1.67;0.00;;;;;-147.14;100.00;58812.66;4981384;28;45346;-47
2022/05/13 08:40:43;;;;;;;;;0.33;0.33;;;;;-147.14;100.00;58812.66;4981278;28;45464;-47
2022/05/13 08:43:13;;;;;;;;;2.33;1.33;;;;;-147.14;100.00;58812.66;4981881;28;45353;-46
2022/05/13 08:45:41;;;;;;;;;2.00;0.33;;;;;-147.14;100.00;58812.66;4973106;28;45478;-50
2022/05/13 08:48:09;;;;;;;;;1.33;1.33;;;;;-147.14;100.00;58812.66;4964091;28;45676;-47
2022/05/13 08:51:01;;;;;;;;;2.00;0.33;;;;;-147.14;100.00;58812.66;4963256;28;46260;-45
2022/05/13 08:53:34;;;;;;;;;4.33;1.00;;;;;-147.14;100.00;58812.66;4980775;28;45278;-45
2022/05/13 08:56:04;;;;;;;;;3.00;1.00;;;;;-147.14;100.00;58812.66;4959085;28;45292;-45
2022/05/13 08:58:43;;;;;;;;;4.33;3.00;;;;;-147.14;100.00;58812.66;4963522;28;45539;-48
2022/05/13 09:01:14;;;;;;;;;1.00;0.00;;;;;-147.14;100.00;58812.66;4981202;28;47266;-46
2022/05/13 09:03:45;;;;;;;;;3.00;1.00;;;;;-147.14;100.00;58812.66;4963245;28;45644;-47
2022/05/13 09:06:24;;;;;;;;;1.00;0.00;;;;;-147.14;100.00;58812.66;4964068;28;45365;-48
2022/05/13 09:08:50;;;;;;;;;0.33;0.33;;;;;-147.14;100.00;58812.66;4963225;28;45495;-47
2022/05/13 09:11:21;;;;;;;;;0.33;0.33;;;;;-147.14;100.00;58812.66;4963746;28;46283;-46
2022/05/13 09:14:15;;;;;;;;;0.00;0.00;;;;;-147.14;100.00;58812.66;4978981;28;45354;-47
2022/05/13 09:16:59;;;;;;;;;0.00;0.00;;;;;-147.14;100.00;58812.66;4980595;28;45330;-49
2022/05/13 09:19:35;;;;;;;;;0.25;0.25;;;;;-147.14;100.00;58812.66;4964029;28;45515;-47
2022/05/13 09:22:03;;;;;;;;;1.00;0.00;;;;;-147.14;100.00;58812.66;4975944;28;46244;-47
2022/05/13 09:24:28;;;;;;;;;1.00;0.25;;;;;-147.14;100.00;58812.66;4980797;28;45302;-47
2022/05/13 09:26:54;;;;;;;;;0.00;0.00;;;;;-147.14;100.00;58812.66;4980702;28;61685;-46
2022/05/13 09:29:19;;;;;;;;;2.33;0.00;;;;;-147.14;100.00;58812.66;4980440;28;62377;-46
2022/05/13 09:32:04;;;;;;;;;0.33;0.33;;;;;-147.14;100.00;58812.66;4982899;28;46265;-47
2022/05/13 09:34:32;;;;;;;;;0.67;0.67;;;;;-147.14;100.00;58812.66;4980694;28;45298;-47
2022/05/13 09:37:22;;;;;;;;;2.00;0.33;;;;;-147.14;100.00;58812.66;4980840;28;45365;-46
2022/05/13 09:40:07;;;;;;;;;0.00;0.00;;;;;-147.14;100.00;58812.66;4966082;28;45620;-48
2022/05/13 09:42:44;;;;;;;;;0.33;0.33;;;;;-147.14;100.00;58812.66;4980463;28;45467;-47
2022/05/13 09:45:17;;;;;;;;;1.00;0.33;;;;;-147.14;100.00;58812.66;4980173;28;45530;-48
2022/05/13 09:47:46;;;;;;;;;0.67;0.33;;;;;-147.14;100.00;58812.66;4978595;28;45289;-48
2022/05/13 09:50:23;;;;;;;;;1.00;1.00;;;;;-147.14;100.00;58812.66;4980734;28;45509;-48
2022/05/13 09:52:48;;;;;;;;;0.33;0.33;;;;;-147.14;100.00;58812.66;4979845;28;46186;-46
2022/05/13 09:55:15;;;;;;;;;1.00;1.00;;;;;-147.14;100.00;58812.66;4962983;28;45395;-47
2022/05/13 09:57:41;;;;;;;;;0.50;0.50;;;;;-147.14;100.00;58812.66;4979583;28;45464;-47
2022/05/13 10:00:17;;;;;;;;;1.00;1.00;;;;;-147.14;100.00;58812.66;4980475;28;45509;-47
2022/05/13 10:02:47;;;;;;;;;0.00;0.00;;;;;-147.14;100.00;58812.66;4977032;28;46919;-47
2022/05/13 10:05:21;;;;;;;;;0.50;0.50;;;;;-147.14;100.00;58812.66;4976545;28;45350;-46
2022/05/13 10:07:56;;;;;;;;;1.33;0.33;;;;;-147.14;100.00;58812.66;4980144;28;45992;-43
2022/05/13 10:16:05;;;;;;;;;1.00;1.00;;;;;-147.14;100.00;58812.66;4980388;28;45558;-45
2022/05/13 10:18:37;;;;;;;;;2.67;1.00;;;;;-147.14;100.00;58812.66;4962166;28;45389;-45
2022/05/13 10:21:08;;;;;;;;;22.00;20.33;;;;;-147.14;100.00;58812.66;4962801;28;45400;-46
2022/05/13 10:23:38;;;;;;;;;47.00;36.67;;;;;-147.14;100.00;58812.66;4961123;28;45443;-45
2022/05/13 10:26:10;;;;;;;;;3.67;2.00;;;;;-147.14;100.00;58812.66;4960548;28;45341;-48
2022/05/13 10:28:45;;;;;;;;;0.25;0.25;;;;;-147.14;100.00;58812.66;4960628;28;47283;-45
2022/05/13 10:31:15;;;;;;;;;1.50;0.25;;;;;-147.14;100.00;58812.66;4955658;28;45575;-44
2022/05/13 10:33:44;;;;;;;;;2.00;0.25;;;;;-147.14;100.00;58812.66;4971686;28;47165;-44
2022/05/13 10:36:38;;;;;;;;;2.50;0.75;;;;;-147.14;100.00;58812.66;4975823;28;45461;-46
2022/05/13 10:39:20;;;;;;;;;1.00;1.00;;;;;-147.14;100.00;58812.66;4974582;28;45421;-45
2022/05/13 10:41:52;;;;;;;;;0.00;0.00;;;;;-147.14;100.00;58812.66;4961614;28;45289;-44
2022/05/13 10:44:26;;;;;;;;;8.67;8.00;;;;;-147.14;100.00;58812.66;4959445;28;46283;-45
2022/05/13 10:46:55;;;;;;;;;2.00;1.33;;;;;-147.14;100.00;58812.66;4969475;28;45430;-48
2022/05/13 10:49:25;;;;;;;;;4.67;1.33;;;;;-147.14;100.00;58812.66;4954100;28;45378;-47
2022/05/13 10:52:11;;;;;;;;;1.33;1.33;;;;;-147.14;100.00;58812.66;4961784;28;45583;-46
2022/05/13 10:54:43;;;;;;;;;0.00;0.00;;;;;-147.14;100.00;58812.66;4959598;28;45377;-46
2022/05/13 10:57:32;;;;;;;;;4.75;2.75;;;;;-147.14;100.00;58812.66;4962002;28;45576;-46
2022/05/13 11:00:12;;;;;;;;;1.75;1.75;;;;;-147.14;100.00;58812.66;4973259;28;45341;-46
2022/05/13 11:02:57;;;;;;;;;0.50;0.00;;;;;-147.14;100.00;58812.66;4961842;28;45412;-45
2022/05/13 11:05:40;;;;;;;;;2.25;1.00;;;;;-147.14;100.00;58812.66;4979655;28;46294;-44
2022/05/13 11:08:43;;;;;;;;;0.50;0.25;;;;;-147.14;100.00;58812.66;4955518;28;45426;-46
2022/05/13 11:11:31;;;;;;;;;0.00;0.00;;;;;-147.14;100.00;58812.66;4976319;28;45552;-44
2022/05/13 11:14:26;;;;;;;;;1.00;0.00;;;;;-147.14;100.00;58812.66;4958320;28;45418;-45
2022/05/13 11:17:02;;;;;;;;;2.67;2.00;;;;;-147.14;100.00;58812.66;4978663;28;45279;-44
2022/05/13 11:19:37;;;;;;;;;3.00;0.00;;;;;-147.14;100.00;58812.66;4961850;28;45340;-49
2022/05/13 11:22:05;;;;;;;;;1.25;1.25;;;;;-147.14;100.00;58812.66;4950173;28;45813;-48
2022/05/13 11:27:44;;;;;;;;;0.00;0.00;;;;;-147.14;100.00;58812.66;4978960;28;45740;-46
2022/05/13 11:30:13;;;;;;;;;0.75;0.75;;;;;-147.14;100.00;58812.66;4930653;28;45551;-50
2022/05/13 11:33:07;;;;;;;;;1.00;1.00;;;;;-147.14;100.00;58812.66;4978052;28;45372;-48
2022/05/13 11:35:39;;;;;;;;;2.00;2.00;;;;;-147.14;100.00;58812.66;4969016;28;45485;-47
2022/05/13 11:38:36;;;;;;;;;1.33;1.33;;;;;-147.14;100.00;58812.66;4979205;28;47024;-47
2022/05/13 11:41:04;;;;;;;;;0.00;0.00;;;;;-147.14;100.00;58812.66;4952023;28;45465;-47
2022/05/13 11:43:32;;;;;;;;;1.00;1.00;;;;;-147.14;100.00;58812.66;4961874;28;45334;-49
2022/05/13 11:46:25;;;;;;;;;2.25;0.50;;;;;-147.14;100.00;58812.66;4978252;28;45433;-51